Time;durP1;ratioP1;P1;durP2;ratioP2;P2;SDS_P1;SDS_P2;PMS_P1;PMS_P2;Temp;Humidity;BMP_temperature;BMP_pressure;BME280_temperature;BME280_humidity;BME280_pressure;Samples;Min_cycle;Max_cycle;Signal;HPM_P1;HPM_P2
2023/01/17 00:01:38;;;;;;;0.50;0.40;;;4.40;99.90;;;;;;4861767;29;20267;-85
2023/01/17 00:12:17;;;;;;;1.67;0.67;;;4.30;99.90;;;;;;4863477;29;20251;-85
2023/01/17 00:14:42;;;;;;;1.77;0.73;;;4.30;99.90;;;;;;4846291;29;20644;-88
2023/01/17 00:17:09;;;;;;;1.30;0.73;;;4.30;99.90;;;;;;4863070;29;20185;-87
2023/01/17 01:35:30;;;;;;;2.47;1.40;;;4.10;99.90;;;;;;4868048;29;20678;-85
2023/01/17 01:37:55;;;;;;;1.57;1.30;;;4.20;99.90;;;;;;4851619;29;20226;-86
2023/01/17 01:40:21;;;;;;;1.30;1.13;;;4.20;99.90;;;;;;4867105;29;20211;-86
2023/01/17 01:42:56;;;;;;;2.10;1.60;;;4.20;99.90;;;;;;4851569;29;20227;-89
2023/01/17 01:45:33;;;;;;;1.67;1.53;;;4.20;99.90;;;;;;4868140;29;20180;-89
2023/01/17 01:48:04;;;;;;;1.37;1.17;;;4.20;99.90;;;;;;4851681;29;20199;-86
2023/01/17 01:50:33;;;;;;;1.70;1.60;;;4.20;99.90;;;;;;4851494;29;20173;-86
2023/01/17 01:53:02;;;;;;;2.20;1.87;;;4.20;99.90;;;;;;4867805;29;20185;-85
2023/01/17 01:55:34;;;;;;;2.93;2.03;;;4.30;99.90;;;;;;4867970;29;20284;-86
2023/01/17 01:58:09;;;;;;;2.87;2.13;;;4.20;99.90;;;;;;5280534;23;20342;-84
2023/01/17 02:00:37;;;;;;;2.20;2.00;;;4.20;99.90;;;;;;4829780;29;20188;-82
2023/01/17 02:03:16;;;;;;;3.43;2.07;;;4.20;99.90;;;;;;4846174;29;20212;-83
2023/01/17 02:05:43;;;;;;;2.80;1.60;;;4.30;99.90;;;;;;4867786;29;20203;-85
2023/01/17 02:08:20;;;;;;;1.70;1.47;;;4.20;99.90;;;;;;4867492;29;20284;-86
2023/01/17 02:10:46;;;;;;;2.83;1.77;;;4.30;99.90;;;;;;4850923;29;20184;-84
2023/01/17 02:13:15;;;;;;;2.07;1.60;;;4.20;99.90;;;;;;4867706;29;20228;-84
2023/01/17 02:15:46;;;;;;;1.60;1.17;;;4.30;99.90;;;;;;4850889;29;20195;-83
2023/01/17 02:18:27;;;;;;;2.33;1.47;;;4.30;99.90;;;;;;4850889;29;20616;-86
2023/01/17 02:21:11;;;;;;;1.60;1.50;;;4.30;99.90;;;;;;4867418;29;20188;-84
2023/01/17 02:24:20;;;;;;;2.53;1.70;;;4.30;99.90;;;;;;4850920;29;20185;-87
2023/01/17 02:26:54;;;;;;;1.77;1.60;;;4.30;99.90;;;;;;4850981;29;20179;-85
2023/01/17 02:29:36;;;;;;;2.30;2.07;;;4.30;99.90;;;;;;4850951;29;20206;-86
2023/01/17 02:32:20;;;;;;;2.17;1.90;;;4.30;99.90;;;;;;4851000;29;20641;-89
2023/01/17 02:34:52;;;;;;;2.47;2.20;;;4.30;99.90;;;;;;4867408;29;20543;-86
2023/01/17 02:38:07;;;;;;;2.80;2.50;;;4.30;99.90;;;;;;4867669;29;20176;-86
2023/01/17 02:40:51;;;;;;;2.47;2.27;;;4.30;99.90;;;;;;4846714;29;20272;-87
2023/01/17 02:43:19;;;;;;;2.50;2.30;;;4.30;99.90;;;;;;4847713;29;20220;-85
2023/01/17 02:45:45;;;;;;;3.00;2.50;;;4.20;99.90;;;;;;4847871;29;20695;-86
2023/01/17 02:48:13;;;;;;;3.10;2.57;;;4.20;99.90;;;;;;4847595;29;20286;-85
2023/01/17 02:51:03;;;;;;;2.40;2.20;;;4.20;99.90;;;;;;4864223;29;20192;-90
2023/01/17 02:53:54;;;;;;;3.03;2.73;;;4.30;99.90;;;;;;4847452;29;20275;-84
2023/01/17 02:56:33;;;;;;;3.93;2.90;;;4.20;99.90;;;;;;4847343;29;20184;-85
2023/01/17 02:59:07;;;;;;;2.97;2.67;;;4.20;99.90;;;;;;4847115;29;20244;-86
2023/01/17 03:01:42;;;;;;;3.70;3.00;;;4.20;99.90;;;;;;4864307;29;20601;-85
2023/01/17 03:04:14;;;;;;;3.00;2.70;;;4.20;99.90;;;;;;4847549;29;20184;-84
2023/01/17 03:06:57;;;;;;;3.90;3.40;;;4.20;99.90;;;;;;4847339;29;20281;-84
2023/01/17 03:09:24;;;;;;;3.50;3.20;;;4.10;99.90;;;;;;4847359;29;20176;-86
2023/01/17 03:11:49;;;;;;;5.03;4.27;;;4.10;99.90;;;;;;4863881;29;20253;-86
2023/01/17 03:14:15;;;;;;;5.13;4.23;;;4.00;99.90;;;;;;4847120;29;20271;-85
2023/01/17 03:16:41;;;;;;;4.83;4.07;;;4.00;99.90;;;;;;4847186;29;20185;-85
2023/01/17 03:19:08;;;;;;;4.20;3.67;;;4.00;99.90;;;;;;4847051;29;20184;-86
2023/01/17 03:21:34;;;;;;;3.93;3.43;;;4.00;99.90;;;;;;4863613;29;20208;-89
2023/01/17 03:24:01;;;;;;;4.70;3.60;;;4.00;99.90;;;;;;4847336;29;20268;-88
2023/01/17 03:26:27;;;;;;;4.00;3.20;;;3.90;99.90;;;;;;4847144;29;20566;-85
2023/01/17 03:28:53;;;;;;;4.30;3.50;;;3.90;99.90;;;;;;4847069;29;20291;-85
2023/01/17 03:31:18;;;;;;;4.50;3.40;;;3.90;99.90;;;;;;4863652;29;20279;-87
2023/01/17 03:33:44;;;;;;;3.80;3.23;;;3.90;99.90;;;;;;4846903;29;20271;-85
2023/01/17 03:36:11;;;;;;;4.27;3.07;;;3.90;99.90;;;;;;4846744;29;20279;-87
2023/01/17 03:38:37;;;;;;;3.27;2.97;;;3.90;99.90;;;;;;4846972;29;20648;-87
2023/01/17 03:41:03;;;;;;;4.20;2.90;;;3.80;99.90;;;;;;4863432;29;20213;-86
2023/01/17 03:43:29;;;;;;;3.00;2.70;;;3.80;99.90;;;;;;4846692;29;20181;-85
2023/01/17 03:46:06;;;;;;;3.27;2.80;;;3.80;99.90;;;;;;4846736;29;20248;-88
2023/01/17 03:48:32;;;;;;;2.87;2.57;;;3.80;99.90;;;;;;4846677;29;20189;-85
2023/01/17 03:50:58;;;;;;;3.07;2.77;;;3.80;99.90;;;;;;4846580;29;20193;-86
2023/01/17 03:53:24;;;;;;;3.70;2.90;;;3.80;99.90;;;;;;4846740;29;20212;-86
2023/01/17 03:55:50;;;;;;;3.40;2.97;;;3.80;99.90;;;;;;4846527;29;20280;-84
2023/01/17 03:58:15;;;;;;;3.27;2.80;;;3.70;99.90;;;;;;4846726;29;20241;-87
2023/01/17 04:00:42;;;;;;;3.57;2.43;;;3.70;99.90;;;;;;4846820;29;20600;-86
2023/01/17 04:03:08;;;;;;;3.43;3.07;;;3.70;99.90;;;;;;4846285;29;20722;-86
2023/01/17 04:05:34;;;;;;;2.60;2.40;;;3.80;99.90;;;;;;4846317;29;20275;-86
2023/01/17 04:07:59;;;;;;;2.87;2.57;;;3.80;99.90;;;;;;4846348;29;20288;-88
2023/01/17 04:10:25;;;;;;;2.53;2.30;;;3.80;99.90;;;;;;4846271;29;20279;-87
2023/01/17 04:12:51;;;;;;;3.00;2.53;;;3.80;99.90;;;;;;4862880;29;20200;-88
2023/01/17 04:15:16;;;;;;;2.43;2.13;;;3.80;99.90;;;;;;4862837;29;20192;-85
2023/01/17 04:17:42;;;;;;;3.30;2.60;;;3.80;99.90;;;;;;4845937;29;20503;-85
2023/01/17 04:20:29;;;;;;;2.23;2.00;;;3.80;99.90;;;;;;4846006;29;20680;-86
2023/01/17 04:22:55;;;;;;;2.60;2.33;;;3.80;99.90;;;;;;4845944;29;20212;-86
2023/01/17 04:25:21;;;;;;;2.43;2.20;;;3.80;99.90;;;;;;4862584;29;20183;-85
2023/01/17 04:27:46;;;;;;;2.87;2.40;;;3.80;99.90;;;;;;4862496;29;20185;-86
2023/01/17 04:30:12;;;;;;;2.70;2.03;;;3.80;99.90;;;;;;4845652;29;20279;-88
2023/01/17 04:32:38;;;;;;;2.50;2.30;;;3.80;99.90;;;;;;4846016;29;20180;-85
2023/01/17 04:35:05;;;;;;;4.03;2.40;;;3.80;99.90;;;;;;4845668;29;20196;-85
2023/01/17 04:37:31;;;;;;;2.47;2.27;;;3.80;99.90;;;;;;4846052;29;20248;-87
2023/01/17 04:39:57;;;;;;;3.30;2.57;;;3.70;99.90;;;;;;4846112;29;20224;-87
2023/01/17 04:42:23;;;;;;;3.10;2.40;;;3.80;99.90;;;;;;4862467;29;20251;-85
2023/01/17 04:44:48;;;;;;;2.50;2.20;;;3.80;99.90;;;;;;4845629;29;20195;-86
2023/01/17 04:47:14;;;;;;;2.83;2.53;;;3.70;99.90;;;;;;4862285;29;20184;-87
2023/01/17 04:49:40;;;;;;;2.73;2.40;;;3.80;99.90;;;;;;4845792;29;20267;-87
2023/01/17 04:52:05;;;;;;;3.67;2.83;;;3.70;99.90;;;;;;4845688;29;20184;-87
2023/01/17 04:54:31;;;;;;;3.37;3.00;;;3.70;99.90;;;;;;4845783;29;20184;-87
2023/01/17 04:56:57;;;;;;;2.97;2.67;;;3.70;99.90;;;;;;4845733;29;20625;-88
2023/01/17 04:59:22;;;;;;;3.20;2.90;;;3.70;99.90;;;;;;4845592;29;20228;-87
2023/01/17 05:01:48;;;;;;;3.53;2.87;;;3.80;99.90;;;;;;4861672;29;20216;-88
2023/01/17 05:04:14;;;;;;;3.10;2.80;;;3.80;99.90;;;;;;4845683;29;20324;-87
2023/01/17 05:06:40;;;;;;;5.33;2.93;;;3.80;99.90;;;;;;4862141;29;20185;-87
2023/01/17 05:09:06;;;;;;;2.37;2.17;;;3.80;99.90;;;;;;4845900;29;20531;-87
2023/01/17 05:11:32;;;;;;;5.17;2.67;;;3.80;99.90;;;;;;4861998;29;20184;-88
2023/01/17 05:13:58;;;;;;;2.77;2.50;;;3.80;99.90;;;;;;4845206;29;20177;-87
2023/01/17 05:16:24;;;;;;;2.73;2.33;;;3.90;99.90;;;;;;4845549;29;20252;-89
2023/01/17 05:18:51;;;;;;;2.10;1.90;;;3.90;99.90;;;;;;4845471;29;20188;-88
2023/01/17 05:21:17;;;;;;;2.10;1.90;;;3.90;99.90;;;;;;4845452;29;20226;-89
2023/01/17 05:23:43;;;;;;;2.10;1.90;;;3.90;99.90;;;;;;4861852;29;20283;-87
2023/01/17 05:26:08;;;;;;;2.57;2.37;;;3.90;99.90;;;;;;4845461;29;20249;-88
2023/01/17 05:28:34;;;;;;;2.30;2.10;;;3.90;99.90;;;;;;4845194;29;20188;-85
2023/01/17 05:31:00;;;;;;;2.93;2.40;;;3.80;99.90;;;;;;4845310;29;20236;-87
2023/01/17 05:33:25;;;;;;;4.47;2.30;;;3.90;99.90;;;;;;4845201;29;20172;-89
2023/01/17 05:35:51;;;;;;;2.90;2.60;;;3.90;99.90;;;;;;4845288;29;20271;-85
2023/01/17 05:38:17;;;;;;;3.03;2.70;;;3.90;99.90;;;;;;4845239;29;20691;-88
2023/01/17 05:40:43;;;;;;;3.80;2.40;;;3.90;99.90;;;;;;4845340;29;20196;-86
2023/01/17 05:43:08;;;;;;;2.63;2.43;;;3.80;99.90;;;;;;4861739;29;20243;-87
2023/01/17 05:45:34;;;;;;;2.80;2.20;;;3.80;99.90;;;;;;4861707;29;20223;-87
2023/01/17 05:48:01;;;;;;;2.37;2.10;;;3.80;99.90;;;;;;4845237;29;20195;-88
2023/01/17 05:50:29;;;;;;;3.17;2.37;;;3.80;99.90;;;;;;4845264;29;20622;-86
2023/01/17 05:53:10;;;;;;;2.53;2.33;;;3.80;99.90;;;;;;4845174;29;20234;-90
2023/01/17 05:55:37;;;;;;;3.13;2.63;;;3.80;99.90;;;;;;4861644;29;20172;-87
2023/01/17 05:58:04;;;;;;;2.57;2.37;;;3.80;99.90;;;;;;4861491;29;20247;-88
2023/01/17 06:00:30;;;;;;;3.10;2.27;;;3.80;99.90;;;;;;4845311;29;20616;-85
2023/01/17 06:02:58;;;;;;;2.80;2.13;;;3.70;99.90;;;;;;4844991;29;20230;-87
2023/01/17 06:05:25;;;;;;;2.33;2.13;;;3.60;99.90;;;;;;4861741;29;20263;-89
2023/01/17 06:07:51;;;;;;;2.10;1.90;;;3.60;99.90;;;;;;4861728;29;20184;-87
2023/01/17 06:10:18;;;;;;;2.70;2.13;;;3.60;99.90;;;;;;4844936;29;20185;-88
2023/01/17 06:12:45;;;;;;;5.60;2.20;;;3.60;99.90;;;;;;4845084;29;20173;-87
2023/01/17 06:15:12;;;;;;;2.73;2.00;;;3.50;99.90;;;;;;4848199;29;20241;-88
2023/01/17 06:17:38;;;;;;;2.17;1.87;;;3.50;99.90;;;;;;4848621;29;20236;-87
2023/01/17 06:20:06;;;;;;;7.70;1.70;;;3.40;99.90;;;;;;4848676;29;20193;-88
2023/01/17 06:22:32;;;;;;;2.30;1.63;;;3.40;99.90;;;;;;4848164;29;20272;-89
2023/01/17 06:24:58;;;;;;;2.23;1.67;;;3.40;99.90;;;;;;4848509;29;20247;-88
2023/01/17 06:27:24;;;;;;;1.80;1.37;;;3.50;99.90;;;;;;4848546;29;20195;-87
2023/01/17 06:29:50;;;;;;;2.63;1.20;;;3.40;99.90;;;;;;4848462;29;20189;-90
2023/01/17 06:32:16;;;;;;;0.87;0.73;;;3.50;99.90;;;;;;4848561;29;20620;-90
2023/01/17 06:34:41;;;;;;;4.80;0.90;;;3.40;99.90;;;;;;4848538;29;20683;-90
2023/01/17 06:37:07;;;;;;;0.90;0.80;;;3.40;99.90;;;;;;4848181;29;20195;-88
2023/01/17 06:39:33;;;;;;;1.73;1.03;;;3.50;99.90;;;;;;4848363;29;20642;-87
2023/01/17 06:41:59;;;;;;;2.33;0.90;;;3.40;99.90;;;;;;4848141;29;20219;-88
2023/01/17 06:44:25;;;;;;;1.10;0.90;;;3.40;99.90;;;;;;4848076;29;20181;-87
2023/01/17 06:46:51;;;;;;;1.23;0.93;;;3.30;99.90;;;;;;4847918;29;20184;-88
2023/01/17 06:49:17;;;;;;;1.03;0.50;;;3.30;99.90;;;;;;4847926;29;20196;-86
2023/01/17 06:51:43;;;;;;;0.50;0.50;;;3.20;99.90;;;;;;4848190;29;20192;-89
2023/01/17 06:54:09;;;;;;;0.50;0.50;;;3.20;99.90;;;;;;4847933;29;20177;-89
2023/01/17 06:56:35;;;;;;;1.43;0.73;;;3.10;99.90;;;;;;4847938;29;20192;-89
2023/01/17 06:59:01;;;;;;;1.23;0.80;;;3.00;99.90;;;;;;4847791;29;20244;-89
2023/01/17 07:01:26;;;;;;;0.60;0.60;;;3.00;99.90;;;;;;4864201;29;20292;-89
2023/01/17 07:03:52;;;;;;;2.67;0.70;;;3.00;99.90;;;;;;4847862;29;20188;-88
2023/01/17 07:06:19;;;;;;;3.27;0.60;;;3.00;99.90;;;;;;4864277;29;20189;-88
2023/01/17 07:08:46;;;;;;;2.70;0.70;;;2.90;99.90;;;;;;4847583;29;20189;-90
2023/01/17 07:11:12;;;;;;;0.57;0.43;;;2.80;99.90;;;;;;4847728;29;20177;-86
2023/01/17 07:13:38;;;;;;;0.80;0.50;;;2.80;99.90;;;;;;4864245;29;20561;-89
2023/01/17 07:16:05;;;;;;;0.60;0.43;;;2.80;99.90;;;;;;4864090;29;20181;-88
2023/01/17 07:18:33;;;;;;;0.87;0.50;;;2.70;99.90;;;;;;4847616;29;20267;-90
2023/01/17 07:20:59;;;;;;;1.00;0.50;;;2.70;99.90;;;;;;4863900;29;20181;-87
2023/01/17 07:23:25;;;;;;;0.60;0.50;;;2.70;99.90;;;;;;4847269;29;20185;-88
2023/01/17 07:25:58;;;;;;;0.50;0.50;;;2.60;99.90;;;;;;4863387;29;20609;-89
2023/01/17 07:28:26;;;;;;;0.87;0.70;;;2.60;99.90;;;;;;4863887;29;20177;-88
2023/01/17 07:30:52;;;;;;;0.80;0.60;;;2.60;99.90;;;;;;4847446;29;20181;-89
2023/01/17 07:33:18;;;;;;;1.73;0.60;;;2.60;99.90;;;;;;4847306;29;20176;-87
2023/01/17 07:35:44;;;;;;;2.07;0.87;;;2.60;99.90;;;;;;4847277;29;20189;-89
2023/01/17 07:38:15;;;;;;;1.23;0.60;;;2.60;99.90;;;;;;4847244;29;20184;-87
2023/01/17 07:40:40;;;;;;;1.10;0.73;;;2.50;99.90;;;;;;4847057;29;20218;-88
2023/01/17 07:43:12;;;;;;;0.90;0.60;;;2.60;99.90;;;;;;4847125;29;20255;-89
2023/01/17 07:45:43;;;;;;;0.97;0.80;;;2.60;99.90;;;;;;4847243;29;20172;-89
2023/01/17 07:48:09;;;;;;;1.20;0.87;;;2.60;99.90;;;;;;4847109;29;20185;-88
2023/01/17 07:50:35;;;;;;;1.00;0.90;;;2.60;99.90;;;;;;4847170;29;20245;-90
2023/01/17 07:53:02;;;;;;;1.60;0.90;;;2.60;99.90;;;;;;4863543;29;20184;-87
2023/01/17 07:55:28;;;;;;;1.83;1.07;;;2.60;99.90;;;;;;4846899;29;20267;-89
2023/01/17 07:57:53;;;;;;;1.33;1.10;;;2.60;99.90;;;;;;4846773;29;20271;-89
2023/01/17 08:00:21;;;;;;;1.90;1.30;;;2.60;99.90;;;;;;4846897;29;20188;-89
2023/01/17 08:02:48;;;;;;;2.23;1.23;;;2.60;99.90;;;;;;4846641;29;20307;-89
2023/01/17 08:05:14;;;;;;;1.20;1.10;;;2.60;99.90;;;;;;4863260;29;20176;-87
2023/01/17 08:07:40;;;;;;;3.23;1.10;;;2.50;99.90;;;;;;4846884;29;20640;-89
2023/01/17 08:10:07;;;;;;;1.70;1.03;;;2.50;99.90;;;;;;4846611;29;20183;-89
2023/01/17 08:12:34;;;;;;;2.63;1.13;;;2.60;99.90;;;;;;4846509;29;20190;-88
2023/01/17 08:15:00;;;;;;;2.27;1.00;;;2.60;99.90;;;;;;4846483;29;20184;-87
2023/01/17 08:17:27;;;;;;;2.40;1.00;;;2.60;99.90;;;;;;4863090;29;20185;-88
2023/01/17 08:19:52;;;;;;;1.20;0.83;;;2.60;99.90;;;;;;4846647;29;20519;-88
2023/01/17 08:22:18;;;;;;;1.47;0.70;;;2.60;99.90;;;;;;4846392;29;20223;-87
2023/01/17 08:24:44;;;;;;;1.43;0.83;;;2.60;99.90;;;;;;4846679;29;20187;-88
2023/01/17 08:27:10;;;;;;;1.53;0.67;;;2.60;99.90;;;;;;4846535;29;20634;-88
2023/01/17 08:29:36;;;;;;;1.53;0.63;;;2.70;99.90;;;;;;4846415;29;20180;-88
2023/01/17 08:32:02;;;;;;;3.40;0.90;;;2.70;99.90;;;;;;4846453;29;20271;-88
2023/01/17 08:34:28;;;;;;;2.20;0.60;;;2.70;99.90;;;;;;4846417;29;20184;-87
2023/01/17 08:36:54;;;;;;;2.70;0.70;;;2.80;99.90;;;;;;4845755;29;20196;-89
2023/01/17 08:39:20;;;;;;;1.13;0.70;;;2.70;99.90;;;;;;4846009;29;20181;-89
2023/01/17 08:41:46;;;;;;;0.90;0.57;;;2.70;99.90;;;;;;4846087;29;20640;-87
2023/01/17 08:44:12;;;;;;;0.70;0.70;;;2.70;99.90;;;;;;4862644;29;20193;-90
2023/01/17 08:46:39;;;;;;;1.50;0.70;;;2.80;99.90;;;;;;4845803;29;20641;-87
2023/01/17 08:49:05;;;;;;;1.27;0.80;;;2.80;99.90;;;;;;4845907;29;20613;-88
2023/01/17 08:51:31;;;;;;;3.67;0.60;;;2.80;99.90;;;;;;4862405;29;20209;-86
2023/01/17 08:53:58;;;;;;;1.43;0.63;;;2.70;99.90;;;;;;4845769;29;20191;-89
2023/01/17 08:56:24;;;;;;;1.20;0.70;;;2.70;99.90;;;;;;4845790;29;20223;-88
2023/01/17 08:58:50;;;;;;;2.43;0.80;;;2.80;99.90;;;;;;4845373;29;20280;-88
2023/01/17 09:01:16;;;;;;;2.10;0.73;;;2.70;99.90;;;;;;4845559;29;20184;-88
2023/01/17 09:03:42;;;;;;;4.33;0.73;;;2.70;99.90;;;;;;4862078;29;20183;-86
2023/01/17 09:06:09;;;;;;;2.33;0.80;;;2.80;99.90;;;;;;4862265;29;20662;-87
2023/01/17 09:08:35;;;;;;;2.37;0.97;;;2.80;99.90;;;;;;4862271;29;20196;-87
2023/01/17 09:11:07;;;;;;;1.97;0.80;;;2.80;99.90;;;;;;4845577;29;20271;-88
2023/01/17 09:13:33;;;;;;;2.17;0.80;;;2.80;99.90;;;;;;4845447;29;20605;-88
2023/01/17 09:15:59;;;;;;;0.87;0.67;;;2.80;99.90;;;;;;4845520;29;20219;-86
2023/01/17 09:18:26;;;;;;;3.00;0.83;;;2.80;99.90;;;;;;4845349;29;20185;-86
2023/01/17 09:20:54;;;;;;;2.77;0.90;;;2.80;99.90;;;;;;4845598;29;20181;-89
2023/01/17 09:23:21;;;;;;;0.80;0.60;;;2.80;99.90;;;;;;4845356;29;20209;-87
2023/01/17 09:25:53;;;;;;;0.87;0.70;;;2.90;99.90;;;;;;4862128;29;20173;-88
2023/01/17 09:28:19;;;;;;;2.57;0.93;;;2.90;99.90;;;;;;4845437;29;20188;-86
2023/01/17 09:30:46;;;;;;;2.10;0.77;;;2.90;99.90;;;;;;4845231;29;20568;-87
2023/01/17 09:33:11;;;;;;;2.47;0.83;;;2.90;99.90;;;;;;4845295;29;20187;-86
2023/01/17 09:35:37;;;;;;;1.30;0.80;;;2.90;99.90;;;;;;4845476;29;20275;-87
2023/01/17 09:38:03;;;;;;;1.63;0.70;;;2.90;99.90;;;;;;4845480;29;20188;-86
2023/01/17 09:40:29;;;;;;;1.27;0.70;;;2.90;99.90;;;;;;4861708;29;20632;-86
2023/01/17 09:43:02;;;;;;;1.50;0.90;;;3.00;99.90;;;;;;4845212;29;20244;-87
2023/01/17 09:45:31;;;;;;;2.37;1.10;;;3.00;99.90;;;;;;4845545;29;20187;-88
2023/01/17 09:47:59;;;;;;;4.13;1.10;;;3.00;99.90;;;;;;4845276;29;20192;-87
2023/01/17 09:50:46;;;;;;;0.93;0.80;;;3.00;99.90;;;;;;4848866;29;20245;-87
2023/01/17 09:53:19;;;;;;;5.43;1.00;;;3.00;99.90;;;;;;4848777;29;20742;-86
2023/01/17 09:56:17;;;;;;;3.77;1.00;;;3.10;99.90;;;;;;4848879;29;20531;-87
2023/01/17 09:59:01;;;;;;;5.20;1.00;;;3.10;99.90;;;;;;4857469;29;20236;-87
2023/01/17 10:01:47;;;;;;;2.70;1.10;;;3.20;99.90;;;;;;4848492;29;20288;-87
2023/01/17 10:04:55;;;;;;;2.80;0.97;;;3.20;99.90;;;;;;4820500;29;20283;-86
2023/01/17 10:07:48;;;;;;;3.97;0.77;;;3.20;99.90;;;;;;4818359;29;20184;-87
2023/01/17 10:10:34;;;;;;;2.20;1.00;;;3.20;99.90;;;;;;4865201;29;20175;-87
2023/01/17 10:13:24;;;;;;;1.53;0.90;;;3.20;99.90;;;;;;4848681;29;20203;-88
2023/01/17 10:19:10;;;;;;;3.53;0.93;;;3.20;99.90;;;;;;5316809;23;20580;-86
2023/01/17 10:22:14;;;;;;;8.13;1.13;;;3.20;99.90;;;;;;4848767;29;20227;-87
2023/01/17 10:25:20;;;;;;;2.73;0.80;;;3.30;99.90;;;;;;4848631;29;20177;-88
2023/01/17 10:28:03;;;;;;;1.83;0.90;;;3.40;99.90;;;;;;4848581;29;20241;-87
2023/01/17 10:30:49;;;;;;;8.97;1.10;;;3.50;99.90;;;;;;4848272;29;20572;-86
2023/01/17 10:33:18;;;;;;;4.80;1.07;;;3.50;99.90;;;;;;4864736;29;20169;-85
2023/01/17 10:35:59;;;;;;;2.57;0.90;;;3.40;99.90;;;;;;4847618;29;20215;-85
2023/01/17 10:38:32;;;;;;;4.83;0.97;;;3.40;99.90;;;;;;4864549;29;20640;-87
2023/01/17 10:41:07;;;;;;;5.77;0.80;;;3.50;99.90;;;;;;4847000;29;20632;-86
2023/01/17 10:43:44;;;;;;;3.83;1.00;;;3.60;99.90;;;;;;4848050;29;20189;-85
2023/01/17 10:46:31;;;;;;;3.07;0.73;;;3.60;99.90;;;;;;4848013;29;20176;-87
2023/01/17 10:48:57;;;;;;;1.80;0.70;;;3.70;99.90;;;;;;4847829;29;20264;-85
2023/01/17 10:51:58;;;;;;;3.27;0.93;;;3.80;99.90;;;;;;4847102;29;20189;-90
2023/01/17 10:54:39;;;;;;;3.77;0.80;;;3.70;99.90;;;;;;4847754;29;20191;-85
2023/01/17 10:57:14;;;;;;;1.73;1.00;;;3.80;99.90;;;;;;4847974;29;20176;-86
2023/01/17 10:59:40;;;;;;;7.73;1.10;;;3.80;99.90;;;;;;4847059;29;20210;-86
2023/01/17 11:02:17;;;;;;;1.90;0.70;;;3.90;99.90;;;;;;4863665;29;20599;-84
2023/01/17 11:04:47;;;;;;;9.13;0.93;;;3.80;99.90;;;;;;4847628;29;20172;-87
2023/01/17 11:07:19;;;;;;;3.10;0.70;;;3.80;99.90;;;;;;4864033;29;20511;-89
2023/01/17 11:09:51;;;;;;;2.37;0.60;;;3.90;99.90;;;;;;4847926;29;20264;-87
2023/01/17 11:12:19;;;;;;;2.17;0.57;;;3.90;99.90;;;;;;4863982;29;20177;-86
2023/01/17 11:15:07;;;;;;;6.47;1.33;;;3.90;99.90;;;;;;4863893;29;20180;-86
2023/01/17 11:17:36;;;;;;;3.90;0.80;;;3.90;99.90;;;;;;4847247;29;20232;-88
2023/01/17 11:20:18;;;;;;;3.87;0.70;;;3.90;99.90;;;;;;4847486;29;20610;-86
2023/01/17 11:23:07;;;;;;;3.37;1.03;;;3.90;99.90;;;;;;4846815;29;20231;-86
2023/01/17 11:25:33;;;;;;;2.80;0.80;;;3.90;99.90;;;;;;4834369;29;20522;-85
2023/01/17 11:28:06;;;;;;;3.80;0.83;;;3.90;99.90;;;;;;4862512;29;20252;-85
2023/01/17 11:30:32;;;;;;;4.07;0.90;;;4.10;99.90;;;;;;4863683;29;20298;-86
2023/01/17 11:33:04;;;;;;;1.77;0.70;;;4.30;99.90;;;;;;4863724;29;20264;-85
2023/01/17 11:35:33;;;;;;;5.73;1.03;;;4.30;99.90;;;;;;4863514;29;20207;-86
2023/01/17 11:38:13;;;;;;;4.90;1.30;;;4.40;99.90;;;;;;4846679;29;20624;-85
2023/01/17 11:40:41;;;;;;;3.33;0.90;;;4.40;99.90;;;;;;4846807;29;20176;-85
2023/01/17 11:43:38;;;;;;;6.67;1.37;;;4.50;99.90;;;;;;4846587;29;20217;-85
2023/01/17 11:46:16;;;;;;;2.93;0.90;;;4.50;99.90;;;;;;4845390;29;20184;-86
2023/01/17 11:49:06;;;;;;;3.50;0.77;;;4.40;99.90;;;;;;4846720;29;20612;-87
2023/01/17 11:51:40;;;;;;;5.43;0.80;;;4.40;99.90;;;;;;4862842;29;20202;-87
2023/01/17 11:54:17;;;;;;;2.40;0.83;;;4.40;99.90;;;;;;4846683;29;20259;-85
2023/01/17 11:56:45;;;;;;;3.53;0.87;;;4.50;99.90;;;;;;4863502;29;20513;-85
2023/01/17 11:59:25;;;;;;;6.30;0.70;;;4.60;99.90;;;;;;4862207;29;20245;-87
2023/01/17 12:02:09;;;;;;;3.63;0.67;;;4.50;99.90;;;;;;4863410;29;20296;-85
2023/01/17 12:04:39;;;;;;;4.03;1.13;;;4.60;99.90;;;;;;4846648;29;20184;-84
2023/01/17 12:07:40;;;;;;;2.20;0.90;;;4.60;99.90;;;;;;4863369;29;20877;-85
2023/01/17 12:10:31;;;;;;;1.60;0.70;;;4.70;99.90;;;;;;4863090;29;20638;-86
2023/01/17 12:16:26;;;;;;;2.37;0.60;;;4.70;99.90;;;;;;4837712;29;20207;-85
2023/01/17 12:19:31;;;;;;;2.67;0.80;;;4.70;99.90;;;;;;4846329;29;20224;-86
2023/01/17 12:22:25;;;;;;;5.47;1.00;;;4.70;99.90;;;;;;4831873;29;20283;-88
2023/01/17 12:24:54;;;;;;;6.97;0.93;;;4.90;99.90;;;;;;4861423;29;20188;-83
2023/01/17 12:27:45;;;;;;;6.37;1.20;;;5.00;99.90;;;;;;4862762;29;20177;-90
2023/01/17 12:30:29;;;;;;;5.93;0.67;;;5.10;99.90;;;;;;4846942;29;20643;-90
2023/01/17 12:33:04;;;;;;;8.00;1.07;;;5.00;99.90;;;;;;4846503;29;20616;-88
2023/01/17 12:35:52;;;;;;;4.63;1.03;;;4.90;99.90;;;;;;4846502;29;20183;-92
2023/01/17 12:38:38;;;;;;;7.37;0.90;;;4.90;99.90;;;;;;4846406;29;20187;-88
2023/01/17 12:41:10;;;;;;;2.13;0.83;;;4.90;99.90;;;;;;4863156;29;20191;-90
2023/01/17 12:43:39;;;;;;;4.93;1.10;;;4.90;99.90;;;;;;4846704;29;20196;-89
2023/01/17 12:46:22;;;;;;;5.90;1.50;;;4.90;99.90;;;;;;4862950;29;20204;-87
2023/01/17 12:48:54;;;;;;;6.13;1.03;;;4.90;99.90;;;;;;4846204;29;20560;-84
2023/01/17 12:51:20;;;;;;;5.13;0.90;;;5.00;99.90;;;;;;4845951;29;20237;-87
2023/01/17 12:54:03;;;;;;;5.20;1.27;;;4.90;99.90;;;;;;4845787;29;20192;-82
2023/01/17 12:56:55;;;;;;;2.43;0.83;;;4.90;99.90;;;;;;4860842;29;20364;-84
2023/01/17 12:59:54;;;;;;;2.60;0.80;;;4.80;99.90;;;;;;4862094;29;20212;-84
2023/01/17 13:02:51;;;;;;;5.57;0.93;;;4.80;99.90;;;;;;4851739;29;20303;-84
2023/01/17 13:05:39;;;;;;;2.20;0.77;;;4.90;99.90;;;;;;4860688;29;20566;-83
2023/01/17 13:08:45;;;;;;;8.20;1.30;;;4.90;99.90;;;;;;4860451;29;20183;-83
2023/01/17 13:11:24;;;;;;;2.30;0.90;;;5.00;99.90;;;;;;4845869;29;20184;-82
2023/01/17 13:13:51;;;;;;;5.13;1.03;;;4.90;99.90;;;;;;4845513;29;20210;-85
2023/01/17 13:16:24;;;;;;;5.97;0.90;;;4.90;99.90;;;;;;4845174;29;20635;-82
2023/01/17 13:18:51;;;;;;;3.17;0.90;;;4.90;99.90;;;;;;4861649;29;20232;-87
2023/01/17 13:21:28;;;;;;;5.57;0.80;;;5.00;99.90;;;;;;4845355;29;20199;-82
2023/01/17 13:24:02;;;;;;;5.20;0.90;;;5.20;99.90;;;;;;4844267;29;20194;-83
2023/01/17 13:26:46;;;;;;;3.63;0.80;;;5.30;99.90;;;;;;4860875;29;20211;-83
2023/01/17 13:29:47;;;;;;;6.03;0.90;;;5.30;99.90;;;;;;4861837;29;20266;-83
2023/01/17 13:33:09;;;;;;;4.00;0.80;;;5.30;99.90;;;;;;4833309;29;20613;-84
2023/01/17 13:35:56;;;;;;;1.47;0.70;;;5.40;99.90;;;;;;4789949;29;20194;-84
2023/01/17 13:38:56;;;;;;;1.90;0.70;;;5.30;99.90;;;;;;4789886;29;20277;-87
2023/01/17 13:41:33;;;;;;;2.30;0.60;;;5.30;99.90;;;;;;4836138;29;20590;-84
2023/01/17 13:46:53;;;;;;;2.37;0.70;;;5.10;99.90;;;;;;4862417;29;20175;-89
2023/01/17 13:49:33;;;;;;;4.80;0.70;;;5.00;99.90;;;;;;4845387;29;20191;-86
2023/01/17 13:52:10;;;;;;;4.23;0.80;;;5.00;99.90;;;;;;4861920;29;20169;-83
2023/01/17 13:54:51;;;;;;;6.40;0.80;;;4.90;99.90;;;;;;4861709;29;20647;-83
2023/01/17 13:57:28;;;;;;;3.93;0.90;;;4.90;99.90;;;;;;4845117;29;20205;-82
2023/01/17 13:59:59;;;;;;;4.27;0.63;;;4.80;99.90;;;;;;4861536;29;20213;-87
2023/01/17 14:02:30;;;;;;;4.37;1.07;;;4.80;99.90;;;;;;4845094;29;20216;-83
2023/01/17 14:05:14;;;;;;;3.20;0.83;;;4.50;99.90;;;;;;4861509;29;20259;-86
2023/01/17 14:07:58;;;;;;;3.97;0.90;;;4.30;99.90;;;;;;4861392;29;20185;-82
2023/01/17 14:10:41;;;;;;;4.87;0.70;;;4.20;99.90;;;;;;4861483;29;20524;-83
2023/01/17 14:13:37;;;;;;;2.73;1.10;;;4.10;99.90;;;;;;4861255;29;20632;-84
2023/01/17 14:16:26;;;;;;;1.37;0.70;;;4.00;99.90;;;;;;4844746;29;20188;-83
2023/01/17 14:18:54;;;;;;;3.33;0.73;;;3.90;99.90;;;;;;4844800;29;20698;-83
2023/01/17 14:21:31;;;;;;;2.87;0.70;;;3.90;99.90;;;;;;4861366;29;20189;-83
2023/01/17 14:24:04;;;;;;;4.67;0.93;;;3.80;99.90;;;;;;4860915;29;20176;-83
2023/01/17 14:26:40;;;;;;;8.20;1.27;;;3.70;99.90;;;;;;4861287;29;20165;-82
2023/01/17 14:29:43;;;;;;;4.20;0.80;;;3.70;99.90;;;;;;4861617;29;20195;-83
2023/01/17 14:32:16;;;;;;;1.73;0.83;;;3.70;99.90;;;;;;4844754;29;20236;-84
2023/01/17 14:34:47;;;;;;;6.80;1.10;;;3.70;99.90;;;;;;4845541;29;20181;-86
2023/01/17 14:37:18;;;;;;;4.13;0.77;;;3.60;99.90;;;;;;4848070;29;20510;-82
2023/01/17 14:39:46;;;;;;;1.10;0.70;;;3.60;99.90;;;;;;4848122;29;20562;-84
2023/01/17 14:42:15;;;;;;;5.03;1.07;;;3.60;99.90;;;;;;4848097;29;20220;-85
2023/01/17 14:44:49;;;;;;;3.00;0.70;;;3.60;99.90;;;;;;4864401;29;20224;-84
2023/01/17 14:47:16;;;;;;;7.63;1.00;;;3.50;99.90;;;;;;4847917;29;20177;-86
2023/01/17 14:49:42;;;;;;;2.03;0.70;;;3.50;99.90;;;;;;4847970;29;20192;-83
2023/01/17 14:52:16;;;;;;;4.97;0.83;;;3.60;99.90;;;;;;4864297;29;20184;-83
2023/01/17 14:54:50;;;;;;;4.93;0.80;;;3.60;99.90;;;;;;4864352;29;20175;-83
2023/01/17 14:57:27;;;;;;;5.87;0.77;;;3.60;99.90;;;;;;4864070;29;20237;-84
2023/01/17 15:00:22;;;;;;;4.50;1.10;;;3.60;99.90;;;;;;4864232;29;20188;-84